KDMA

Davis Monthan AFB Airport

Tucson, Arizona, USA
METAR KDMA 151258Z AUTO 14005KT 10SM CLR 06/M07 A3018 RMK AO2 SLP206 T00591070 $
Observed Flight Rules
Dec-15 @ 12:58 UTC (an hour ago) Visual Flight Rules
Wind Visibility Clouds
140° at 5 knots 10 miles
  • Clear skies
Temperatures Readings
Current 6°C / 43°F
Dewpoint -7°C / 19°F
Humidity 39%
Altimeter 30.18" Hg
Pressure 1020.6 hPa
Elevation 824
METAR KDMA 151258Z AUTO 14005KT 10SM CLR 06/M07 A3018 RMK AO2 SLP206 T00591070 $
Observed Flight Rules
Dec-15 @ 12:58 UTC
(an hour ago)
VFR
Wind Visibility
140° at 5 knots 10 miles
Clouds
  • Clear skies
Temperature Dewpoint
6°C / 43°F -7°C / 19°F
Humidity Altimeter Pressure
39% 30.18" Hg 1020.6 hPa